Terminal Aerodrome Forecast
Issued by NWS North Platte, NE

Home | Current Version | Previous Version | Text Only | Print | Product List | Glossary On
Versions: 1 2 3 4 5 6 7 8 9 10 11 12 13 14 15 16 17 18 19 20
384
FTUS43 KLBF 220836 AAA
TAFVTN
TAF AMD
KVTN 220836Z 2209/2306 01008KT P6SM OVC008
     FM221500 02009KT P6SM OVC012
     FM221800 03007KT P6SM SCT012 OVC025=

USA.gov is the U.S. government's official web portal to all federal, state and local government web resources and services.